sensor_id;sensor_type;location;lat;lon;timestamp;pressure;altitude;pressure_sealevel;temperature;humidity
18858;BME280;9558;50.178;8.370;2023-07-09T00:00:13;98530.25;;;18.15;79.43
18858;BME280;9558;50.178;8.370;2023-07-09T00:03:00;98532.91;;;18.08;79.21
18858;BME280;9558;50.178;8.370;2023-07-09T00:05:49;98535.97;;;18.05;79.19
18858;BME280;9558;50.178;8.370;2023-07-09T00:08:40;98536.97;;;18.04;80.21
18858;BME280;9558;50.178;8.370;2023-07-09T00:11:29;98540.47;;;17.98;80.50
18858;BME280;9558;50.178;8.370;2023-07-09T00:14:16;98539.88;;;17.96;81.22
18858;BME280;9558;50.178;8.370;2023-07-09T00:17:07;98537.28;;;17.89;80.44
18858;BME280;9558;50.178;8.370;2023-07-09T00:19:54;98537.13;;;17.84;80.77
18858;BME280;9558;50.178;8.370;2023-07-09T00:22:43;98540.94;;;17.82;81.26
18858;BME280;9558;50.178;8.370;2023-07-09T00:25:33;98549.03;;;17.80;81.90
18858;BME280;9558;50.178;8.370;2023-07-09T00:28:21;98551.69;;;17.73;81.68
18858;BME280;9558;50.178;8.370;2023-07-09T00:31:09;98550.53;;;17.69;81.82
18858;BME280;9558;50.178;8.370;2023-07-09T00:33:59;98553.56;;;17.66;82.20
18858;BME280;9558;50.178;8.370;2023-07-09T00:36:45;98553.38;;;17.61;82.00
18858;BME280;9558;50.178;8.370;2023-07-09T00:39:33;98552.19;;;17.57;82.22
18858;BME280;9558;50.178;8.370;2023-07-09T00:42:21;98558.44;;;17.56;82.76
18858;BME280;9558;50.178;8.370;2023-07-09T00:45:17;98557.25;;;17.52;82.95
18858;BME280;9558;50.178;8.370;2023-07-09T00:48:06;98561.13;;;17.49;82.90
18858;BME280;9558;50.178;8.370;2023-07-09T00:50:55;98561.31;;;17.48;83.52
18858;BME280;9558;50.178;8.370;2023-07-09T00:53:43;98552.28;;;17.43;83.93
18858;BME280;9558;50.178;8.370;2023-07-09T00:56:35;98552.91;;;17.39;83.71
18858;BME280;9558;50.178;8.370;2023-07-09T00:59:25;98556.75;;;17.36;83.59
18858;BME280;9558;50.178;8.370;2023-07-09T01:02:15;98547.88;;;17.37;84.50
18858;BME280;9558;50.178;8.370;2023-07-09T01:05:04;98558.75;;;17.34;84.86
18858;BME280;9558;50.178;8.370;2023-07-09T01:07:52;98558.19;;;17.32;85.58
18858;BME280;9558;50.178;8.370;2023-07-09T01:10:39;98558.00;;;17.27;85.64
18858;BME280;9558;50.178;8.370;2023-07-09T01:13:28;98557.63;;;17.23;85.39
18858;BME280;9558;50.178;8.370;2023-07-09T01:16:18;98560.44;;;17.22;85.20
18858;BME280;9558;50.178;8.370;2023-07-09T01:19:05;98560.25;;;17.23;85.93
18858;BME280;9558;50.178;8.370;2023-07-09T01:21:55;98564.50;;;17.18;85.21
18858;BME280;9558;50.178;8.370;2023-07-09T01:24:50;98565.06;;;17.20;85.70
18858;BME280;9558;50.178;8.370;2023-07-09T01:27:38;98573.34;;;17.17;85.77
18858;BME280;9558;50.178;8.370;2023-07-09T01:30:29;98570.13;;;17.15;85.50
18858;BME280;9558;50.178;8.370;2023-07-09T01:33:17;98572.16;;;17.13;86.07
18858;BME280;9558;50.178;8.370;2023-07-09T01:36:04;98576.59;;;17.12;86.76
18858;BME280;9558;50.178;8.370;2023-07-09T01:38:55;98576.19;;;17.08;86.30
18858;BME280;9558;50.178;8.370;2023-07-09T01:41:42;98572.97;;;17.06;86.71
18858;BME280;9558;50.178;8.370;2023-07-09T01:44:32;98572.38;;;17.04;87.09
18858;BME280;9558;50.178;8.370;2023-07-09T01:47:19;98570.97;;;17.02;86.38
18858;BME280;9558;50.178;8.370;2023-07-09T01:50:06;98573.78;;;17.00;86.35
18858;BME280;9558;50.178;8.370;2023-07-09T01:52:55;98563.34;;;17.00;86.87
18858;BME280;9558;50.178;8.370;2023-07-09T01:55:44;98574.22;;;16.97;86.65
18858;BME280;9558;50.178;8.370;2023-07-09T01:58:31;98561.56;;;16.94;86.58
18858;BME280;9558;50.178;8.370;2023-07-09T02:01:17;98563.16;;;16.95;87.33
18858;BME280;9558;50.178;8.370;2023-07-09T02:04:05;98558.75;;;16.89;87.06
18858;BME280;9558;50.178;8.370;2023-07-09T02:06:53;98566.97;;;16.86;87.26
18858;BME280;9558;50.178;8.370;2023-07-09T02:09:39;98567.38;;;16.83;87.58
18858;BME280;9558;50.178;8.370;2023-07-09T02:12:28;98562.78;;;16.85;87.83
18858;BME280;9558;50.178;8.370;2023-07-09T02:15:15;98567.00;;;16.79;88.88
18858;BME280;9558;50.178;8.370;2023-07-09T02:18:02;98565.19;;;16.80;87.86
18858;BME280;9558;50.178;8.370;2023-07-09T02:20:49;98570.84;;;16.76;88.39
18858;BME280;9558;50.178;8.370;2023-07-09T02:23:36;98566.59;;;16.75;87.97
18858;BME280;9558;50.178;8.370;2023-07-09T02:26:22;98564.00;;;16.75;88.47
18858;BME280;9558;50.178;8.370;2023-07-09T02:29:10;98565.00;;;16.74;88.61
18858;BME280;9558;50.178;8.370;2023-07-09T02:31:58;98564.41;;;16.72;88.35
18858;BME280;9558;50.178;8.370;2023-07-09T02:34:46;98569.03;;;16.70;89.03
18858;BME280;9558;50.178;8.370;2023-07-09T02:37:34;98557.78;;;16.70;88.56
18858;BME280;9558;50.178;8.370;2023-07-09T02:40:21;98571.03;;;16.68;89.00
18858;BME280;9558;50.178;8.370;2023-07-09T02:43:08;98565.63;;;16.63;88.33
18858;BME280;9558;50.178;8.370;2023-07-09T02:45:56;98568.66;;;16.60;88.53
18858;BME280;9558;50.178;8.370;2023-07-09T02:48:43;98566.25;;;16.58;89.97
18858;BME280;9558;50.178;8.370;2023-07-09T02:51:30;98575.91;;;16.58;88.69
18858;BME280;9558;50.178;8.370;2023-07-09T02:54:17;98577.91;;;16.56;89.04
18858;BME280;9558;50.178;8.370;2023-07-09T02:57:04;98577.50;;;16.52;88.76
18858;BME280;9558;50.178;8.370;2023-07-09T02:59:51;98583.75;;;16.51;89.24
18858;BME280;9558;50.178;8.370;2023-07-09T03:02:39;98583.16;;;16.49;89.89
18858;BME280;9558;50.178;8.370;2023-07-09T03:05:26;98585.97;;;16.48;88.89
18858;BME280;9558;50.178;8.370;2023-07-09T03:08:13;98583.56;;;16.46;89.64
18858;BME280;9558;50.178;8.370;2023-07-09T03:11:09;98594.38;;;16.43;90.20
18858;BME280;9558;50.178;8.370;2023-07-09T03:13:56;98591.19;;;16.41;89.53
18858;BME280;9558;50.178;8.370;2023-07-09T03:16:43;98590.41;;;16.40;89.89
18858;BME280;9558;50.178;8.370;2023-07-09T03:19:31;98590.78;;;16.37;90.12
18858;BME280;9558;50.178;8.370;2023-07-09T03:22:18;98588.38;;;16.36;89.94
18858;BME280;9558;50.178;8.370;2023-07-09T03:25:06;98593.78;;;16.34;90.41
18858;BME280;9558;50.178;8.370;2023-07-09T03:27:52;98589.59;;;16.33;90.42
18858;BME280;9558;50.178;8.370;2023-07-09T03:30:40;98595.19;;;16.30;89.68
18858;BME280;9558;50.178;8.370;2023-07-09T03:33:27;98591.59;;;16.31;90.23
18858;BME280;9558;50.178;8.370;2023-07-09T03:36:15;98599.44;;;16.31;90.59
18858;BME280;9558;50.178;8.370;2023-07-09T03:39:02;98602.03;;;16.31;90.97
18858;BME280;9558;50.178;8.370;2023-07-09T03:41:49;98597.22;;;16.28;90.43
18858;BME280;9558;50.178;8.370;2023-07-09T03:44:36;98601.66;;;16.28;91.81
18858;BME280;9558;50.178;8.370;2023-07-09T03:47:23;98608.66;;;16.27;91.04
18858;BME280;9558;50.178;8.370;2023-07-09T03:50:10;98607.66;;;16.28;90.87
18858;BME280;9558;50.178;8.370;2023-07-09T03:52:58;98607.25;;;16.31;91.15
18858;BME280;9558;50.178;8.370;2023-07-09T03:55:46;98601.44;;;16.29;91.11
18858;BME280;9558;50.178;8.370;2023-07-09T03:58:33;98608.88;;;16.32;91.44
18858;BME280;9558;50.178;8.370;2023-07-09T04:01:20;98612.28;;;16.33;91.17
18858;BME280;9558;50.178;8.370;2023-07-09T04:04:07;98614.69;;;16.34;91.18
18858;BME280;9558;50.178;8.370;2023-07-09T04:06:54;98616.09;;;16.37;91.56
18858;BME280;9558;50.178;8.370;2023-07-09T04:09:42;98618.50;;;16.38;91.66
18858;BME280;9558;50.178;8.370;2023-07-09T04:12:29;98621.75;;;16.40;91.27
18858;BME280;9558;50.178;8.370;2023-07-09T04:15:16;98619.72;;;16.42;91.42
18858;BME280;9558;50.178;8.370;2023-07-09T04:18:03;98624.53;;;16.46;91.24
18858;BME280;9558;50.178;8.370;2023-07-09T04:20:50;98624.34;;;16.47;91.38
18858;BME280;9558;50.178;8.370;2023-07-09T04:23:37;98627.34;;;16.51;91.96
18858;BME280;9558;50.178;8.370;2023-07-09T04:26:26;98636.59;;;16.53;91.83
18858;BME280;9558;50.178;8.370;2023-07-09T04:29:13;98631.75;;;16.57;91.49
18858;BME280;9558;50.178;8.370;2023-07-09T04:32:00;98631.34;;;16.60;92.77
18858;BME280;9558;50.178;8.370;2023-07-09T04:34:47;98630.94;;;16.63;91.68
18858;BME280;9558;50.178;8.370;2023-07-09T04:37:34;98623.31;;;16.68;91.40
18858;BME280;9558;50.178;8.370;2023-07-09T04:40:21;98630.53;;;16.73;91.24
18858;BME280;9558;50.178;8.370;2023-07-09T04:43:10;98631.34;;;16.80;91.64
18858;BME280;9558;50.178;8.370;2023-07-09T04:45:57;98628.91;;;16.85;91.56
18858;BME280;9558;50.178;8.370;2023-07-09T04:48:43;98623.31;;;16.88;91.44
18858;BME280;9558;50.178;8.370;2023-07-09T04:51:30;98632.34;;;16.92;92.01
18858;BME280;9558;50.178;8.370;2023-07-09T04:54:17;98621.06;;;16.99;91.63
18858;BME280;9558;50.178;8.370;2023-07-09T04:57:05;98623.25;;;17.02;91.74
18858;BME280;9558;50.178;8.370;2023-07-09T04:59:53;98626.88;;;17.07;91.56
18858;BME280;9558;50.178;8.370;2023-07-09T05:02:40;98634.91;;;17.13;91.56
18858;BME280;9558;50.178;8.370;2023-07-09T05:05:27;98625.22;;;17.20;91.78
18858;BME280;9558;50.178;8.370;2023-07-09T05:08:13;98632.03;;;17.27;92.02
18858;BME280;9558;50.178;8.370;2023-07-09T05:11:00;98630.41;;;17.33;92.10
18858;BME280;9558;50.178;8.370;2023-07-09T05:13:47;98632.78;;;17.41;92.01
18858;BME280;9558;50.178;8.370;2023-07-09T05:16:35;98630.38;;;17.47;91.78
18858;BME280;9558;50.178;8.370;2023-07-09T05:19:22;98620.66;;;17.54;91.74
18858;BME280;9558;50.178;8.370;2023-07-09T05:22:09;98626.47;;;17.62;92.27
18858;BME280;9558;50.178;8.370;2023-07-09T05:24:55;98623.38;;;17.72;92.59
18858;BME280;9558;50.178;8.370;2023-07-09T05:27:42;98619.72;;;17.80;92.77
18858;BME280;9558;50.178;8.370;2023-07-09T05:30:29;98621.28;;;17.88;92.50
18858;BME280;9558;50.178;8.370;2023-07-09T05:33:18;98618.03;;;17.99;92.29
18858;BME280;9558;50.178;8.370;2023-07-09T05:36:05;98621.97;;;18.08;92.45
18858;BME280;9558;50.178;8.370;2023-07-09T05:38:52;98624.69;;;18.20;91.84
18858;BME280;9558;50.178;8.370;2023-07-09T05:41:39;98620.97;;;18.35;91.89
18858;BME280;9558;50.178;8.370;2023-07-09T05:44:26;98619.25;;;18.47;92.17
18858;BME280;9558;50.178;8.370;2023-07-09T05:47:13;98621.59;;;18.55;91.97
18858;BME280;9558;50.178;8.370;2023-07-09T05:50:02;98621.13;;;18.65;92.08
18858;BME280;9558;50.178;8.370;2023-07-09T05:52:49;98626.66;;;18.75;92.13
18858;BME280;9558;50.178;8.370;2023-07-09T05:55:36;98624.13;;;18.87;92.44
18858;BME280;9558;50.178;8.370;2023-07-09T05:58:23;98621.59;;;18.99;92.85
18858;BME280;9558;50.178;8.370;2023-07-09T06:01:11;98625.88;;;19.12;92.91
18858;BME280;9558;50.178;8.370;2023-07-09T06:03:58;98627.56;;;19.25;92.77
18858;BME280;9558;50.178;8.370;2023-07-09T06:06:46;98638.91;;;19.37;92.86
18858;BME280;9558;50.178;8.370;2023-07-09T06:09:33;98637.50;;;19.53;92.66
18858;BME280;9558;50.178;8.370;2023-07-09T06:12:20;98642.28;;;19.75;92.68
18858;BME280;9558;50.178;8.370;2023-07-09T06:15:07;98645.81;;;19.99;92.45
18858;BME280;9558;50.178;8.370;2023-07-09T06:17:54;98649.19;;;20.30;92.05
18858;BME280;9558;50.178;8.370;2023-07-09T06:20:46;98641.44;;;20.70;91.25
18858;BME280;9558;50.178;8.370;2023-07-09T06:23:35;98640.81;;;21.16;90.35
18858;BME280;9558;50.178;8.370;2023-07-09T06:26:21;98645.72;;;21.65;88.53
18858;BME280;9558;50.178;8.370;2023-07-09T06:29:08;98648.31;;;22.22;81.78
18858;BME280;9558;50.178;8.370;2023-07-09T06:31:55;98648.81;;;22.92;83.79
18858;BME280;9558;50.178;8.370;2023-07-09T06:34:42;98646.28;;;23.69;80.62
18858;BME280;9558;50.178;8.370;2023-07-09T06:37:28;98651.50;;;24.51;78.40
18858;BME280;9558;50.178;8.370;2023-07-09T06:40:16;98650.38;;;25.32;75.46
18858;BME280;9558;50.178;8.370;2023-07-09T06:43:03;98650.25;;;26.11;73.05
18858;BME280;9558;50.178;8.370;2023-07-09T06:45:52;98647.75;;;26.92;70.24
18858;BME280;9558;50.178;8.370;2023-07-09T06:48:39;98658.31;;;27.68;66.99
18858;BME280;9558;50.178;8.370;2023-07-09T06:51:26;98657.81;;;28.40;63.30
18858;BME280;9558;50.178;8.370;2023-07-09T06:54:12;98654.47;;;29.07;60.98
18858;BME280;9558;50.178;8.370;2023-07-09T06:57:02;98651.78;;;29.69;58.81
18858;BME280;9558;50.178;8.370;2023-07-09T06:59:49;98656.25;;;30.26;55.74
18858;BME280;9558;50.178;8.370;2023-07-09T07:02:36;98651.38;;;30.75;54.28
18858;BME280;9558;50.178;8.370;2023-07-09T07:05:23;98655.16;;;31.15;52.86
18858;BME280;9558;50.178;8.370;2023-07-09T07:08:10;98656.00;;;31.39;42.32
18858;BME280;9558;50.178;8.370;2023-07-09T07:10:58;98657.84;;;31.88;48.01
18858;BME280;9558;50.178;8.370;2023-07-09T07:13:49;98658.41;;;32.22;47.26
18858;BME280;9558;50.178;8.370;2023-07-09T07:16:37;98661.56;;;32.55;46.09
18858;BME280;9558;50.178;8.370;2023-07-09T07:19:23;98661.69;;;32.90;45.47
18858;BME280;9558;50.178;8.370;2023-07-09T07:22:12;98656.44;;;33.26;42.79
18858;BME280;9558;50.178;8.370;2023-07-09T07:24:59;98644.78;;;33.56;41.90
18858;BME280;9558;50.178;8.370;2023-07-09T07:27:45;98650.59;;;33.93;40.56
18858;BME280;9558;50.178;8.370;2023-07-09T07:30:33;98645.19;;;34.29;38.94
18858;BME280;9558;50.178;8.370;2023-07-09T07:33:20;98641.69;;;34.67;37.28
18858;BME280;9558;50.178;8.370;2023-07-09T07:36:08;98642.59;;;35.09;36.82
18858;BME280;9558;50.178;8.370;2023-07-09T07:38:55;98651.38;;;35.49;36.24
18858;BME280;9558;50.178;8.370;2023-07-09T07:41:41;98650.88;;;35.89;34.99
18858;BME280;9558;50.178;8.370;2023-07-09T07:44:28;98652.69;;;36.30;33.81
18858;BME280;9558;50.178;8.370;2023-07-09T07:47:16;98650.44;;;36.70;33.69
18858;BME280;9558;50.178;8.370;2023-07-09T07:50:04;98656.50;;;37.04;33.54
18858;BME280;9558;50.178;8.370;2023-07-09T07:52:51;98657.41;;;37.48;32.73
18858;BME280;9558;50.178;8.370;2023-07-09T07:55:38;98654.69;;;37.89;32.06
18858;BME280;9558;50.178;8.370;2023-07-09T07:58:25;98654.25;;;38.31;31.47
18858;BME280;9558;50.178;8.370;2023-07-09T08:01:11;98648.66;;;38.72;31.30
18858;BME280;9558;50.178;8.370;2023-07-09T08:03:59;98642.16;;;39.12;30.75
18858;BME280;9558;50.178;8.370;2023-07-09T08:06:46;98652.34;;;39.54;30.14
18858;BME280;9558;50.178;8.370;2023-07-09T08:09:33;98647.25;;;39.92;28.60
18858;BME280;9558;50.178;8.370;2023-07-09T08:12:20;98656.00;;;40.28;28.66
18858;BME280;9558;50.178;8.370;2023-07-09T08:15:08;98657.75;;;40.63;27.67
18858;BME280;9558;50.178;8.370;2023-07-09T08:17:55;98648.47;;;40.91;27.63
18858;BME280;9558;50.178;8.370;2023-07-09T08:20:44;98650.91;;;41.30;27.50
18858;BME280;9558;50.178;8.370;2023-07-09T08:23:31;98658.66;;;41.62;26.99
18858;BME280;9558;50.178;8.370;2023-07-09T08:26:18;98657.06;;;41.95;26.49
18858;BME280;9558;50.178;8.370;2023-07-09T08:29:05;98652.97;;;42.16;25.61
18858;BME280;9558;50.178;8.370;2023-07-09T08:31:51;98653.22;;;42.44;26.48
18858;BME280;9558;50.178;8.370;2023-07-09T08:34:39;98654.25;;;42.77;26.21
18858;BME280;9558;50.178;8.370;2023-07-09T08:37:28;98644.22;;;42.96;25.97
18858;BME280;9558;50.178;8.370;2023-07-09T08:40:16;98646.63;;;43.08;26.27
18858;BME280;9558;50.178;8.370;2023-07-09T08:43:11;98645.91;;;43.26;24.96
18858;BME280;9558;50.178;8.370;2023-07-09T08:46:07;98654.97;;;43.52;25.47
18858;BME280;9558;50.178;8.370;2023-07-09T08:48:56;98653.84;;;43.67;24.82
18858;BME280;9558;50.178;8.370;2023-07-09T08:51:45;98656.97;;;43.73;24.90
18858;BME280;9558;50.178;8.370;2023-07-09T08:54:36;98658.91;;;43.68;24.89
18858;BME280;9558;50.178;8.370;2023-07-09T08:57:25;98648.38;;;43.74;25.01
18858;BME280;9558;50.178;8.370;2023-07-09T09:00:15;98648.78;;;43.69;24.71
18858;BME280;9558;50.178;8.370;2023-07-09T09:03:08;98649.19;;;43.78;24.94
18858;BME280;9558;50.178;8.370;2023-07-09T09:05:57;98647.25;;;43.82;24.51
18858;BME280;9558;50.178;8.370;2023-07-09T09:08:51;98642.56;;;43.83;24.76
18858;BME280;9558;50.178;8.370;2023-07-09T09:11:44;98637.16;;;43.94;24.66
18858;BME280;9558;50.178;8.370;2023-07-09T09:14:33;98644.56;;;43.86;24.17
18858;BME280;9558;50.178;8.370;2023-07-09T09:17:21;98639.81;;;43.65;24.18
18858;BME280;9558;50.178;8.370;2023-07-09T09:20:10;98652.91;;;43.20;24.63
18858;BME280;9558;50.178;8.370;2023-07-09T09:23:11;98649.09;;;42.65;25.16
18858;BME280;9558;50.178;8.370;2023-07-09T09:26:00;98642.59;;;42.25;25.69
18858;BME280;9558;50.178;8.370;2023-07-09T09:28:50;98647.94;;;41.76;26.39
18858;BME280;9558;50.178;8.370;2023-07-09T09:31:37;98635.00;;;41.32;26.73
18858;BME280;9558;50.178;8.370;2023-07-09T09:34:26;98642.03;;;40.76;26.78
18858;BME280;9558;50.178;8.370;2023-07-09T09:37:24;98638.22;;;40.31;28.11
18858;BME280;9558;50.178;8.370;2023-07-09T09:40:12;98639.84;;;39.89;28.34
18858;BME280;9558;50.178;8.370;2023-07-09T09:42:59;98640.06;;;39.41;28.82
18858;BME280;9558;50.178;8.370;2023-07-09T09:45:48;98634.97;;;39.00;28.65
18858;BME280;9558;50.178;8.370;2023-07-09T09:48:36;98641.94;;;38.66;29.43
18858;BME280;9558;50.178;8.370;2023-07-09T09:51:24;98635.59;;;38.26;29.84
18858;BME280;9558;50.178;8.370;2023-07-09T09:54:16;98642.25;;;37.84;30.80
18858;BME280;9558;50.178;8.370;2023-07-09T09:57:04;98656.41;;;37.53;31.04
18858;BME280;9558;50.178;8.370;2023-07-09T10:00:02;98660.53;;;37.22;31.34
18858;BME280;9558;50.178;8.370;2023-07-09T10:02:58;98651.94;;;36.92;31.10
18858;BME280;9558;50.178;8.370;2023-07-09T10:05:50;98643.50;;;36.69;31.50
18858;BME280;9558;50.178;8.370;2023-07-09T10:08:46;98641.59;;;36.44;32.20
18858;BME280;9558;50.178;8.370;2023-07-09T10:11:44;98634.66;;;36.22;32.34
18858;BME280;9558;50.178;8.370;2023-07-09T10:14:36;98628.56;;;36.01;32.58
18858;BME280;9558;50.178;8.370;2023-07-09T10:17:37;98631.94;;;35.76;33.22
18858;BME280;9558;50.178;8.370;2023-07-09T10:20:32;98634.59;;;35.64;33.35
18858;BME280;9558;50.178;8.370;2023-07-09T10:23:26;98620.28;;;35.51;32.96
18858;BME280;9558;50.178;8.370;2023-07-09T10:26:22;98612.84;;;35.36;33.21
18858;BME280;9558;50.178;8.370;2023-07-09T10:29:42;98610.06;;;35.23;32.98
18858;BME280;9558;50.178;8.370;2023-07-09T10:32:44;98606.91;;;35.21;33.38
18858;BME280;9558;50.178;8.370;2023-07-09T10:35:38;98606.50;;;35.10;33.15
18858;BME280;9558;50.178;8.370;2023-07-09T10:38:38;98601.91;;;35.11;33.31
18858;BME280;9558;50.178;8.370;2023-07-09T10:41:28;98589.72;;;35.13;33.54
18858;BME280;9558;50.178;8.370;2023-07-09T10:44:20;98592.47;;;35.05;33.75
18858;BME280;9558;50.178;8.370;2023-07-09T10:47:13;98584.59;;;35.00;33.71
18858;BME280;9558;50.178;8.370;2023-07-09T10:50:12;98586.50;;;34.99;33.88
18858;BME280;9558;50.178;8.370;2023-07-09T10:53:09;98590.78;;;35.00;33.89
18858;BME280;9558;50.178;8.370;2023-07-09T10:56:00;98588.25;;;34.95;34.03
18858;BME280;9558;50.178;8.370;2023-07-09T10:58:53;98585.78;;;34.90;33.93
18858;BME280;9558;50.178;8.370;2023-07-09T11:01:58;98586.56;;;34.90;34.26
18858;BME280;9558;50.178;8.370;2023-07-09T11:04:48;98585.47;;;34.91;33.61
18858;BME280;9558;50.178;8.370;2023-07-09T11:07:54;98588.91;;;34.92;34.26
18858;BME280;9558;50.178;8.370;2023-07-09T11:10:49;98585.91;;;34.93;33.88
18858;BME280;9558;50.178;8.370;2023-07-09T11:13:40;98582.88;;;34.95;32.75
18858;BME280;9558;50.178;8.370;2023-07-09T11:16:31;98588.91;;;34.92;33.46
18858;BME280;9558;50.178;8.370;2023-07-09T11:19:19;98568.50;;;34.91;32.93
18858;BME280;9558;50.178;8.370;2023-07-09T11:22:16;98575.03;;;34.90;32.94
18858;BME280;9558;50.178;8.370;2023-07-09T11:25:08;98571.47;;;34.98;33.35
18858;BME280;9558;50.178;8.370;2023-07-09T11:28:03;98572.28;;;34.99;32.73
18858;BME280;9558;50.178;8.370;2023-07-09T11:30:52;98564.72;;;34.92;33.26
18858;BME280;9558;50.178;8.370;2023-07-09T11:33:46;98566.63;;;34.91;32.47
18858;BME280;9558;50.178;8.370;2023-07-09T11:36:35;98562.03;;;34.92;33.32
18858;BME280;9558;50.178;8.370;2023-07-09T11:39:43;98554.56;;;34.98;32.79
18858;BME280;9558;50.178;8.370;2023-07-09T11:42:33;98563.72;;;34.96;32.61
18858;BME280;9558;50.178;8.370;2023-07-09T11:45:24;98552.56;;;35.07;32.82
18858;BME280;9558;50.178;8.370;2023-07-09T11:48:21;98563.63;;;35.14;33.19
18858;BME280;9558;50.178;8.370;2023-07-09T11:51:15;98554.66;;;35.22;32.60
18858;BME280;9558;50.178;8.370;2023-07-09T11:54:03;98548.25;;;35.36;32.55
18858;BME280;9558;50.178;8.370;2023-07-09T11:56:54;98553.22;;;35.46;31.67
18858;BME280;9558;50.178;8.370;2023-07-09T11:59:42;98556.50;;;35.52;30.65
18858;BME280;9558;50.178;8.370;2023-07-09T12:02:33;98555.28;;;35.61;31.09
18858;BME280;9558;50.178;8.370;2023-07-09T12:05:24;98554.09;;;35.71;31.88
18858;BME280;9558;50.178;8.370;2023-07-09T12:08:14;98550.38;;;35.76;31.37
18858;BME280;9558;50.178;8.370;2023-07-09T12:11:02;98541.19;;;35.77;30.89
18858;BME280;9558;50.178;8.370;2023-07-09T12:13:49;98540.16;;;35.69;31.21
18858;BME280;9558;50.178;8.370;2023-07-09T12:16:39;98546.88;;;35.63;31.09
18858;BME280;9558;50.178;8.370;2023-07-09T12:19:30;98532.19;;;35.60;30.79
18858;BME280;9558;50.178;8.370;2023-07-09T12:22:20;98524.44;;;35.59;30.39
18858;BME280;9558;50.178;8.370;2023-07-09T12:25:18;98515.09;;;35.56;30.57
18858;BME280;9558;50.178;8.370;2023-07-09T12:28:13;98502.66;;;35.52;30.05
18858;BME280;9558;50.178;8.370;2023-07-09T12:31:00;98504.00;;;35.45;30.54
18858;BME280;9558;50.178;8.370;2023-07-09T12:33:48;98507.13;;;35.47;30.43
18858;BME280;9558;50.178;8.370;2023-07-09T12:36:38;98506.78;;;35.49;30.16
18858;BME280;9558;50.178;8.370;2023-07-09T12:39:29;98502.19;;;35.50;29.20
18858;BME280;9558;50.178;8.370;2023-07-09T12:42:20;98494.69;;;35.55;29.86
18858;BME280;9558;50.178;8.370;2023-07-09T12:45:13;98483.50;;;35.66;30.62
18858;BME280;9558;50.178;8.370;2023-07-09T12:48:00;98481.69;;;35.70;30.06
18858;BME280;9558;50.178;8.370;2023-07-09T12:50:49;98481.06;;;35.73;30.23
18858;BME280;9558;50.178;8.370;2023-07-09T12:53:39;98475.00;;;35.76;29.94
18858;BME280;9558;50.178;8.370;2023-07-09T12:56:26;98471.63;;;35.79;29.58
18858;BME280;9558;50.178;8.370;2023-07-09T12:59:17;98472.56;;;35.83;30.03
18858;BME280;9558;50.178;8.370;2023-07-09T13:02:12;98460.88;;;35.91;29.27
18858;BME280;9558;50.178;8.370;2023-07-09T13:05:04;98467.94;;;35.96;29.49
18858;BME280;9558;50.178;8.370;2023-07-09T13:07:52;98471.22;;;36.02;29.29
18858;BME280;9558;50.178;8.370;2023-07-09T13:10:41;98468.19;;;36.03;29.79
18858;BME280;9558;50.178;8.370;2023-07-09T13:13:28;98461.66;;;36.04;28.92
18858;BME280;9558;50.178;8.370;2023-07-09T13:16:15;98468.19;;;36.03;28.87
18858;BME280;9558;50.178;8.370;2023-07-09T13:19:01;98457.97;;;36.09;28.92
18858;BME280;9558;50.178;8.370;2023-07-09T13:21:48;98462.00;;;36.03;28.15
18858;BME280;9558;50.178;8.370;2023-07-09T13:24:35;98463.34;;;36.09;28.94
18858;BME280;9558;50.178;8.370;2023-07-09T13:27:23;98463.34;;;36.09;29.05
18858;BME280;9558;50.178;8.370;2023-07-09T13:30:11;98456.03;;;36.09;28.83
18858;BME280;9558;50.178;8.370;2023-07-09T13:32:58;98456.16;;;36.13;28.58
18858;BME280;9558;50.178;8.370;2023-07-09T13:35:46;98469.16;;;36.11;28.22
18858;BME280;9558;50.178;8.370;2023-07-09T13:38:34;98455.25;;;36.09;28.68
18858;BME280;9558;50.178;8.370;2023-07-09T13:41:21;98450.34;;;35.98;28.92
18858;BME280;9558;50.178;8.370;2023-07-09T13:44:12;98456.06;;;35.85;28.13
18858;BME280;9558;50.178;8.370;2023-07-09T13:46:59;98468.16;;;35.78;28.26
18858;BME280;9558;50.178;8.370;2023-07-09T13:49:46;98468.38;;;35.73;27.45
18858;BME280;9558;50.178;8.370;2023-07-09T13:52:34;98458.81;;;35.63;27.86
18858;BME280;9558;50.178;8.370;2023-07-09T13:55:23;98457.91;;;35.59;28.35
18858;BME280;9558;50.178;8.370;2023-07-09T13:58:10;98461.28;;;35.56;28.52
18858;BME280;9558;50.178;8.370;2023-07-09T14:01:05;98453.88;;;35.53;27.81
18858;BME280;9558;50.178;8.370;2023-07-09T14:03:54;98460.25;;;35.49;28.31
18858;BME280;9558;50.178;8.370;2023-07-09T14:06:44;98443.06;;;35.41;27.36
18858;BME280;9558;50.178;8.370;2023-07-09T14:09:32;98440.84;;;35.43;27.43
18858;BME280;9558;50.178;8.370;2023-07-09T14:12:19;98428.31;;;35.47;27.87
18858;BME280;9558;50.178;8.370;2023-07-09T14:15:12;98434.22;;;35.40;27.36
18858;BME280;9558;50.178;8.370;2023-07-09T14:18:01;98428.50;;;35.42;26.94
18858;BME280;9558;50.178;8.370;2023-07-09T14:20:49;98434.56;;;35.39;27.69
18858;BME280;9558;50.178;8.370;2023-07-09T14:23:36;98429.19;;;35.39;27.67
18858;BME280;9558;50.178;8.370;2023-07-09T14:26:23;98422.22;;;35.38;27.99
18858;BME280;9558;50.178;8.370;2023-07-09T14:29:11;98431.88;;;35.39;28.17
18858;BME280;9558;50.178;8.370;2023-07-09T14:31:59;98424.91;;;35.38;27.79
18858;BME280;9558;50.178;8.370;2023-07-09T14:34:47;98429.84;;;35.36;27.68
18858;BME280;9558;50.178;8.370;2023-07-09T14:37:34;98429.53;;;35.37;27.32
18858;BME280;9558;50.178;8.370;2023-07-09T14:40:21;98424.00;;;35.34;27.75
18858;BME280;9558;50.178;8.370;2023-07-09T14:43:09;98428.94;;;35.32;28.00
18858;BME280;9558;50.178;8.370;2023-07-09T14:45:56;98424.84;;;35.25;28.26
18858;BME280;9558;50.178;8.370;2023-07-09T14:48:43;98421.03;;;35.26;28.00
18858;BME280;9558;50.178;8.370;2023-07-09T14:51:31;98415.44;;;35.19;27.08
18858;BME280;9558;50.178;8.370;2023-07-09T14:54:19;98401.97;;;35.19;27.44
18858;BME280;9558;50.178;8.370;2023-07-09T14:57:11;98404.66;;;35.19;27.68
18858;BME280;9558;50.178;8.370;2023-07-09T15:00:04;98403.41;;;35.17;26.42
18858;BME280;9558;50.178;8.370;2023-07-09T15:02:53;98397.69;;;35.18;27.24
18858;BME280;9558;50.178;8.370;2023-07-09T15:05:40;98386.69;;;35.11;26.78